Time;durP1;ratioP1;P1;durP2;ratioP2;P2;SDS_P1;SDS_P2;PMS_P1;PMS_P2;Temp;Humidity;BMP_temperature;BMP_pressure;BME280_temperature;BME280_humidity;BME280_pressure;Samples;Min_cycle;Max_cycle;Signal;HPM_P1;HPM_P2
2022/08/09 00:01:30;;;;;;;4.10;3.00;;;13.20;1.00;;;;;;5014965;28;20538;-84
2022/08/09 00:03:56;;;;;;;3.40;2.92;;;13.20;1.00;;;;;;5032445;28;20049;-84
2022/08/09 00:06:24;;;;;;;5.07;3.53;;;13.10;99.90;;;;;;5014604;28;20034;-84
2022/08/09 00:08:50;;;;;;;6.53;3.95;;;13.00;99.90;;;;;;5029951;28;20260;-84
2022/08/09 00:11:18;;;;;;;4.97;3.15;;;12.90;99.90;;;;;;5011981;28;20208;-84
2022/08/09 00:13:44;;;;;;;4.30;2.40;;;12.90;99.90;;;;;;5015013;28;20075;-84
2022/08/09 00:16:10;;;;;;;4.53;3.25;;;12.80;99.90;;;;;;5017026;28;20473;-84
2022/08/09 00:18:36;;;;;;;4.82;3.42;;;12.70;99.90;;;;;;5033186;28;20531;-84
2022/08/09 00:21:04;;;;;;;7.05;3.70;;;12.70;99.90;;;;;;5032678;28;20045;-84
2022/08/09 00:23:30;;;;;;;4.60;3.70;;;12.70;99.90;;;;;;5014693;28;20037;-84
2022/08/09 00:25:56;;;;;;;4.40;3.42;;;12.70;99.90;;;;;;5036036;28;20510;-84
2022/08/09 00:28:22;;;;;;;4.57;3.53;;;12.60;99.90;;;;;;5018203;28;20066;-84
2022/08/09 00:30:49;;;;;;;7.10;3.63;;;12.50;99.90;;;;;;5033842;28;20565;-84
2022/08/09 00:33:15;;;;;;;11.60;4.65;;;12.50;99.90;;;;;;5013994;28;20056;-85
2022/08/09 00:35:41;;;;;;;13.38;4.90;;;12.50;99.90;;;;;;5015974;28;20040;-84
2022/08/09 00:38:08;;;;;;;5.30;2.67;;;12.40;1.00;;;;;;5015648;28;20040;-84
2022/08/09 00:40:34;;;;;;;4.80;3.50;;;12.40;1.00;;;;;;5030218;28;20037;-84
2022/08/09 00:43:00;;;;;;;5.07;2.75;;;12.40;1.00;;;;;;5018120;28;20471;-84
2022/08/09 00:45:26;;;;;;;4.53;2.47;;;12.30;1.00;;;;;;5037674;28;20037;-85
2022/08/09 00:47:52;;;;;;;8.05;2.97;;;12.30;99.90;;;;;;5013604;28;20455;-85
2022/08/09 00:50:18;;;;;;;13.07;4.78;;;12.30;1.00;;;;;;5013788;28;20034;-85
2022/08/09 00:52:43;;;;;;;11.80;4.85;;;12.30;1.00;;;;;;5015289;28;20037;-85
2022/08/09 00:55:10;;;;;;;7.95;4.53;;;12.30;1.00;;;;;;5029712;28;20051;-85
2022/08/09 00:57:35;;;;;;;2.22;1.38;;;12.30;1.00;;;;;;5035953;28;20030;-85
2022/08/09 01:00:08;;;;;;;2.97;2.05;;;12.20;99.90;;;;;;5012990;28;20064;-84
2022/08/09 01:02:38;;;;;;;2.47;1.25;;;12.20;1.00;;;;;;5031709;28;20263;-85
2022/08/09 01:05:11;;;;;;;2.55;1.10;;;12.20;99.90;;;;;;5048679;28;20404;-84
2022/08/09 01:07:45;;;;;;;4.30;2.30;;;12.00;99.90;;;;;;5034555;28;20029;-84
2022/08/09 01:10:14;;;;;;;1.58;1.45;;;12.00;99.90;;;;;;5021697;28;20072;-84
2022/08/09 01:12:46;;;;;;;0.80;0.70;;;12.00;99.90;;;;;;5032847;28;20033;-85
2022/08/09 01:15:18;;;;;;;40.42;3.08;;;11.80;99.90;;;;;;5036159;28;20328;-85
2022/08/09 01:17:54;;;;;;;12.65;1.80;;;11.80;99.90;;;;;;5019314;28;20142;-84
2022/08/09 01:20:31;;;;;;;2.58;2.00;;;11.90;1.00;;;;;;5013355;28;20044;-84
2022/08/09 01:23:23;;;;;;;5.05;2.20;;;11.80;99.90;;;;;;5028193;28;20049;-85
2022/08/09 01:26:07;;;;;;;5.30;1.60;;;11.70;99.90;;;;;;5012985;28;20040;-85
2022/08/09 01:28:37;;;;;;;11.15;2.28;;;11.70;99.90;;;;;;5022000;28;20333;-83
2022/08/09 01:31:10;;;;;;;34.88;4.85;;;11.70;99.90;;;;;;5016987;28;20048;-83
2022/08/09 01:33:39;;;;;;;65.28;6.90;;;11.70;99.90;;;;;;5011497;28;20172;-83
2022/08/09 01:36:10;;;;;;;84.10;6.88;;;11.70;99.90;;;;;;5027103;28;20037;-84
2022/08/09 01:38:41;;;;;;;9.68;4.80;;;11.70;99.90;;;;;;5020526;28;20380;-84
2022/08/09 01:41:20;;;;;;;12.45;4.57;;;11.60;99.90;;;;;;5035964;28;20072;-83
2022/08/09 01:43:50;;;;;;;3.38;2.42;;;11.60;99.90;;;;;;5050460;28;20040;-83
2022/08/09 01:46:23;;;;;;;5.45;3.83;;;11.60;99.90;;;;;;5010714;28;20411;-83
2022/08/09 01:48:51;;;;;;;5.68;4.35;;;11.60;99.90;;;;;;5037634;28;20038;-84
2022/08/09 01:51:19;;;;;;;7.68;4.90;;;11.60;99.90;;;;;;5033073;28;20745;-83
2022/08/09 01:53:46;;;;;;;12.23;6.32;;;11.70;99.90;;;;;;5037848;28;20200;-83
2022/08/09 01:56:13;;;;;;;44.35;8.25;;;11.80;1.00;;;;;;5014097;28;20495;-83
2022/08/09 01:58:41;;;;;;;14.00;6.05;;;11.90;99.90;;;;;;5012842;28;20095;-83
2022/08/09 02:01:07;;;;;;;24.20;4.82;;;12.00;99.90;;;;;;5027341;28;20546;-84
2022/08/09 02:03:35;;;;;;;64.65;4.78;;;12.00;99.90;;;;;;5029557;28;20041;-83
2022/08/09 02:06:03;;;;;;;37.15;5.25;;;12.00;99.90;;;;;;5019183;28;20139;-83
2022/08/09 02:08:31;;;;;;;10.27;6.32;;;11.90;99.90;;;;;;5013236;28;20033;-83
2022/08/09 02:11:00;;;;;;;11.52;6.80;;;11.80;99.90;;;;;;5029900;28;20488;-83
2022/08/09 02:13:26;;;;;;;19.98;5.38;;;11.60;99.90;;;;;;5051492;28;20395;-83
2022/08/09 02:15:54;;;;;;;29.92;2.60;;;11.70;99.90;;;;;;5019769;28;20305;-84
2022/08/09 02:18:24;;;;;;;38.63;4.97;;;11.70;99.90;;;;;;5012970;28;20054;-83
2022/08/09 02:21:04;;;;;;;6.78;5.03;;;11.60;99.90;;;;;;5028752;28;20037;-83
2022/08/09 02:23:37;;;;;;;8.70;5.30;;;11.60;99.90;;;;;;5018037;28;20068;-83
2022/08/09 02:26:05;;;;;;;8.85;5.55;;;11.70;99.90;;;;;;5031265;28;20037;-84
2022/08/09 02:28:41;;;;;;;6.70;4.22;;;11.60;99.90;;;;;;5032344;28;20034;-84
2022/08/09 02:31:12;;;;;;;6.40;4.03;;;11.50;68.60;;;;;;5028507;28;20519;-84
2022/08/09 02:33:43;;;;;;;5.80;3.75;;;11.40;1.00;;;;;;5025220;28;20068;-84
2022/08/09 02:36:14;;;;;;;5.82;3.03;;;11.30;1.00;;;;;;5028618;28;20041;-84
2022/08/09 02:38:46;;;;;;;3.60;2.95;;;11.20;1.00;;;;;;5008132;28;20034;-84
2022/08/09 02:41:18;;;;;;;19.92;4.85;;;11.20;1.00;;;;;;5010418;28;20762;-84
2022/08/09 02:43:46;;;;;;;11.45;5.70;;;11.20;1.00;;;;;;5016785;28;20119;-84
2022/08/09 02:46:14;;;;;;;28.67;6.00;;;11.30;1.00;;;;;;5017549;28;20187;-84
2022/08/09 02:48:41;;;;;;;2.10;1.33;;;11.30;1.00;;;;;;5028597;28;20115;-84
2022/08/09 02:51:10;;;;;;;34.67;4.10;;;11.10;99.90;;;;;;5014859;28;20239;-83
2022/08/09 02:53:46;;;;;;;31.48;6.43;;;11.20;99.90;;;;;;5032822;28;20052;-84
2022/08/09 02:56:13;;;;;;;13.18;5.10;;;11.20;1.00;;;;;;5033971;28;20091;-84
2022/08/09 02:58:41;;;;;;;56.10;5.40;;;11.30;1.00;;;;;;5034400;28;20481;-84
2022/08/09 03:01:11;;;;;;;10.57;4.20;;;11.20;1.00;;;;;;5012420;28;20520;-83
2022/08/09 03:03:38;;;;;;;5.45;3.78;;;11.20;1.00;;;;;;5009724;28;20377;-84
2022/08/09 03:06:06;;;;;;;50.90;5.03;;;11.10;1.00;;;;;;5025581;28;20086;-84
2022/08/09 03:08:33;;;;;;;47.90;5.10;;;11.00;1.00;;;;;;5024623;28;20369;-83
2022/08/09 03:11:01;;;;;;;14.95;4.57;;;11.00;1.00;;;;;;5020670;28;20030;-84
2022/08/09 03:13:28;;;;;;;52.85;5.72;;;11.00;1.00;;;;;;5010492;28;20478;-84
2022/08/09 03:15:55;;;;;;;73.35;5.50;;;10.90;99.90;;;;;;5049655;28;20105;-84
2022/08/09 03:18:21;;;;;;;10.57;4.55;;;10.80;99.90;;;;;;5009959;28;20072;-84
2022/08/09 03:20:48;;;;;;;41.38;6.78;;;10.80;99.90;;;;;;5009276;28;20038;-84
2022/08/09 03:23:16;;;;;;;6.88;5.20;;;10.80;1.00;;;;;;5025082;28;20037;-84
2022/08/09 03:25:42;;;;;;;14.18;5.57;;;10.80;1.00;;;;;;5034516;28;20045;-84
2022/08/09 03:28:10;;;;;;;107.45;9.15;;;10.80;1.00;;;;;;5027262;28;20037;-84
2022/08/09 03:30:36;;;;;;;34.40;6.20;;;10.90;1.00;;;;;;5016200;28;20104;-84
2022/08/09 03:33:07;;;;;;;14.20;4.65;;;10.80;1.00;;;;;;5008623;28;20129;-84
2022/08/09 03:35:34;;;;;;;18.02;5.45;;;10.80;1.00;;;;;;5013706;28;20064;-84
2022/08/09 03:38:00;;;;;;;140.40;9.00;;;10.80;1.00;;;;;;5036915;28;20743;-84
2022/08/09 03:40:26;;;;;;;31.30;5.30;;;10.80;1.00;;;;;;5012232;28;20093;-84
2022/08/09 03:42:52;;;;;;;177.07;10.65;;;10.70;1.00;;;;;;5013649;28;20041;-84
2022/08/09 03:45:17;;;;;;;36.95;5.82;;;10.70;99.90;;;;;;5022145;28;20044;-84
2022/08/09 03:47:43;;;;;;;22.35;5.65;;;10.70;1.00;;;;;;5032983;28;20344;-84
2022/08/09 03:50:11;;;;;;;60.00;6.18;;;10.70;1.00;;;;;;5014931;28;20140;-84
2022/08/09 03:52:41;;;;;;;10.63;4.90;;;10.70;1.00;;;;;;5021416;28;20040;-84
2022/08/09 03:55:09;;;;;;;12.32;5.30;;;10.70;1.00;;;;;;5030127;28;20518;-84
2022/08/09 03:57:35;;;;;;;16.73;6.05;;;10.70;1.00;;;;;;5039463;28;20107;-84
2022/08/09 04:00:01;;;;;;;32.83;5.45;;;10.70;1.00;;;;;;5039968;28;20037;-84
2022/08/09 04:02:30;;;;;;;8.45;4.22;;;10.70;1.00;;;;;;5034535;28;20059;-84
2022/08/09 04:04:58;;;;;;;31.50;5.55;;;10.70;1.00;;;;;;5037934;28;20034;-84
2022/08/09 04:07:24;;;;;;;12.23;5.82;;;10.70;1.00;;;;;;5015075;28;20044;-84
2022/08/09 04:09:50;;;;;;;31.67;5.15;;;10.60;1.00;;;;;;5040625;28;20073;-84
2022/08/09 04:12:39;;;;;;;6.03;4.13;;;10.60;1.00;;;;;;5017637;28;20134;-84
2022/08/09 04:15:05;;;;;;;6.13;4.38;;;10.50;1.00;;;;;;5054509;28;20041;-83
2022/08/09 04:17:31;;;;;;;16.70;5.60;;;10.50;99.90;;;;;;5028124;28;20515;-84
2022/08/09 04:19:57;;;;;;;8.82;5.63;;;10.60;99.90;;;;;;5013967;28;20116;-84
2022/08/09 04:22:23;;;;;;;7.93;5.63;;;10.70;1.00;;;;;;5014423;28;20052;-84
2022/08/09 04:24:49;;;;;;;16.52;7.43;;;10.80;1.00;;;;;;5036237;28;20042;-84
2022/08/09 04:27:15;;;;;;;17.15;4.55;;;10.90;1.00;;;;;;5016394;28;20075;-84
2022/08/09 04:29:40;;;;;;;44.67;5.80;;;10.70;99.90;;;;;;5014181;28;20040;-84
2022/08/09 04:32:06;;;;;;;98.30;7.35;;;10.60;99.90;;;;;;5013522;28;20033;-84
2022/08/09 04:34:33;;;;;;;64.72;8.32;;;10.70;99.90;;;;;;5020782;28;20276;-84
2022/08/09 04:36:59;;;;;;;19.85;5.93;;;10.70;99.90;;;;;;5029425;28;20059;-84
2022/08/09 04:39:26;;;;;;;86.45;8.90;;;10.70;99.90;;;;;;5033497;28;20060;-84
2022/08/09 04:41:51;;;;;;;92.63;8.63;;;10.70;99.90;;;;;;5031718;28;20193;-84
2022/08/09 04:44:17;;;;;;;143.13;10.27;;;10.70;99.90;;;;;;5014503;28;20401;-84
2022/08/09 04:46:43;;;;;;;142.80;11.82;;;10.80;1.00;;;;;;5015760;28;20211;-84
2022/08/09 04:49:09;;;;;;;88.05;9.63;;;10.90;1.00;;;;;;5026312;28;20137;-84
2022/08/09 04:51:35;;;;;;;8.98;6.50;;;10.80;1.00;;;;;;5029967;28;20037;-84
2022/08/09 04:54:01;;;;;;;7.95;5.70;;;10.80;99.90;;;;;;5012819;28;20379;-84
2022/08/09 04:56:27;;;;;;;7.32;5.72;;;11.00;99.90;;;;;;5036624;28;20500;-84
2022/08/09 04:58:53;;;;;;;49.25;7.43;;;10.90;99.90;;;;;;5031636;28;20486;-84
2022/08/09 05:01:18;;;;;;;105.25;9.55;;;10.90;99.90;;;;;;5017854;28;20056;-85
2022/08/09 05:03:44;;;;;;;69.57;9.10;;;11.00;99.90;;;;;;5015000;28;20044;-84
2022/08/09 05:06:11;;;;;;;227.80;13.38;;;11.10;99.90;;;;;;5029339;28;20037;-84
2022/08/09 05:08:40;;;;;;;69.78;9.15;;;11.20;99.90;;;;;;5035148;28;20045;-84
2022/08/09 05:11:06;;;;;;;114.57;11.55;;;11.30;99.90;;;;;;5028037;28;20029;-84
2022/08/09 05:13:32;;;;;;;58.35;10.02;;;11.50;1.00;;;;;;5030233;28;20044;-84
2022/08/09 05:15:58;;;;;;;64.70;10.02;;;11.50;99.90;;;;;;5013087;28;20040;-84
2022/08/09 05:18:28;;;;;;;50.58;9.80;;;11.60;99.90;;;;;;5012182;28;20040;-84
2022/08/09 05:20:55;;;;;;;11.10;7.85;;;11.70;1.00;;;;;;5015064;28;20390;-85
2022/08/09 05:23:22;;;;;;;17.00;8.05;;;11.80;1.00;;;;;;5011851;28;20045;-84
2022/08/09 05:25:48;;;;;;;10.15;7.15;;;12.10;1.00;;;;;;5034871;28;20049;-85
2022/08/09 05:28:14;;;;;;;11.15;7.88;;;12.20;1.00;;;;;;5036414;28;20457;-85
2022/08/09 05:30:39;;;;;;;8.38;6.70;;;12.40;1.00;;;;;;5053122;28;20385;-84
2022/08/09 05:33:05;;;;;;;8.05;6.38;;;12.40;99.90;;;;;;5031282;28;20036;-85
2022/08/09 05:35:31;;;;;;;9.27;7.25;;;12.50;1.00;;;;;;5012905;28;20118;-85
2022/08/09 05:37:57;;;;;;;12.25;7.82;;;12.70;1.00;;;;;;5013570;28;20052;-84
2022/08/09 05:40:25;;;;;;;12.15;8.55;;;13.00;99.90;;;;;;5014353;28;20473;-85
2022/08/09 05:42:51;;;;;;;10.27;7.30;;;13.20;99.90;;;;;;5030639;28;20038;-85
2022/08/09 05:45:17;;;;;;;10.30;7.28;;;13.40;99.90;;;;;;5017027;28;20110;-85
2022/08/09 05:47:42;;;;;;;10.50;7.07;;;13.40;99.90;;;;;;5027516;28;20417;-85
2022/08/09 05:50:08;;;;;;;11.73;7.85;;;13.60;99.90;;;;;;5011883;28;20036;-85
2022/08/09 05:52:34;;;;;;;9.15;6.55;;;13.80;99.90;;;;;;5010443;28;21319;-85
2022/08/09 05:55:00;;;;;;;12.70;8.23;;;14.00;99.90;;;;;;5012389;28;20115;-85
2022/08/09 05:57:26;;;;;;;11.77;8.18;;;14.30;1.00;;;;;;5028808;28;20036;-85
2022/08/09 05:59:52;;;;;;;13.43;7.68;;;14.50;1.00;;;;;;5010175;28;20456;-84
2022/08/09 06:02:18;;;;;;;11.70;7.90;;;14.60;1.00;;;;;;5015696;28;20057;-84
2022/08/09 06:04:44;;;;;;;15.20;9.38;;;14.80;99.90;;;;;;5029102;28;20257;-85
2022/08/09 06:07:09;;;;;;;13.82;9.23;;;15.10;99.90;;;;;;5010878;28;20096;-85
2022/08/09 06:09:35;;;;;;;14.35;9.27;;;15.20;99.90;;;;;;5027676;28;20120;-85
2022/08/09 06:12:01;;;;;;;15.82;9.05;;;15.50;99.90;;;;;;5010727;28;20037;-85
2022/08/09 06:14:27;;;;;;;10.98;8.10;;;15.60;99.90;;;;;;5015769;28;20041;-85
2022/08/09 06:16:54;;;;;;;13.60;8.50;;;15.70;99.90;;;;;;5033338;28;20327;-85
2022/08/09 06:19:20;;;;;;;13.48;8.65;;;15.90;99.90;;;;;;5035691;28;20045;-85
2022/08/09 06:21:46;;;;;;;10.73;7.60;;;16.10;99.90;;;;;;5010047;28;20045;-84
2022/08/09 06:24:12;;;;;;;13.45;8.00;;;16.10;99.90;;;;;;5012828;28;20464;-85
2022/08/09 06:26:40;;;;;;;10.52;8.07;;;16.30;13.60;;;;;;5012090;28;20391;-84
2022/08/09 06:29:08;;;;;;;13.98;8.00;;;16.30;1.00;;;;;;5007850;28;20103;-85
2022/08/09 06:31:35;;;;;;;15.52;9.27;;;16.50;1.00;;;;;;5009114;28;20033;-84
2022/08/09 06:34:02;;;;;;;11.63;7.72;;;16.70;1.00;;;;;;5008904;28;20037;-85
2022/08/09 06:36:28;;;;;;;12.60;8.07;;;16.70;99.90;;;;;;5029004;28;20040;-85
2022/08/09 06:38:54;;;;;;;12.18;7.90;;;16.80;99.90;;;;;;5012541;28;20087;-85
2022/08/09 06:41:20;;;;;;;9.13;6.90;;;16.90;99.90;;;;;;5028672;28;21392;-85
2022/08/09 06:43:47;;;;;;;10.27;7.45;;;17.00;99.90;;;;;;5011672;28;20470;-85
2022/08/09 06:46:16;;;;;;;11.27;7.20;;;17.10;99.90;;;;;;5031481;28;20045;-85
2022/08/09 06:48:42;;;;;;;8.80;7.05;;;17.20;1.00;;;;;;5029632;28;21221;-85
2022/08/09 06:51:11;;;;;;;10.55;6.82;;;17.20;1.00;;;;;;5019356;28;20211;-85
2022/08/09 06:53:38;;;;;;;10.50;6.70;;;17.30;99.90;;;;;;5010807;28;20043;-85
2022/08/09 06:56:07;;;;;;;10.27;6.78;;;17.40;99.90;;;;;;5012098;28;22188;-85
2022/08/09 06:58:33;;;;;;;9.40;6.25;;;17.60;99.90;;;;;;5024677;28;20056;-84
2022/08/09 07:00:59;;;;;;;8.77;6.18;;;17.80;99.90;;;;;;5029848;28;20057;-84
2022/08/09 07:03:25;;;;;;;8.38;6.18;;;17.90;99.90;;;;;;5012752;28;20053;-85
2022/08/09 07:05:51;;;;;;;9.30;5.82;;;17.80;99.90;;;;;;5011019;28;20145;-85
2022/08/09 07:08:17;;;;;;;8.27;5.07;;;17.90;22.30;;;;;;5019585;28;20223;-85
2022/08/09 07:10:43;;;;;;;6.75;5.05;;;18.00;1.00;;;;;;5013173;28;20130;-85
2022/08/09 07:13:09;;;;;;;8.55;4.80;;;18.10;1.00;;;;;;5029345;28;20042;-85
2022/08/09 07:15:35;;;;;;;8.23;4.60;;;18.10;1.00;;;;;;5016664;28;20098;-85
2022/08/09 07:18:00;;;;;;;5.30;4.07;;;18.20;99.90;;;;;;5013057;28;20060;-85
2022/08/09 07:20:26;;;;;;;9.80;4.40;;;18.40;1.00;;;;;;5028644;28;20116;-85
2022/08/09 07:22:52;;;;;;;6.70;4.18;;;18.50;99.90;;;;;;5047874;28;20041;-85
2022/08/09 07:25:18;;;;;;;5.75;3.47;;;18.60;99.90;;;;;;5011616;28;20484;-85
2022/08/09 07:27:44;;;;;;;7.00;3.85;;;18.60;99.90;;;;;;5050459;28;20052;-86
2022/08/09 07:30:12;;;;;;;5.88;3.40;;;18.70;99.90;;;;;;5052655;28;20191;-85
2022/08/09 07:32:41;;;;;;;4.70;3.15;;;18.80;99.90;;;;;;5012490;28;20116;-85
2022/08/09 07:35:10;;;;;;;7.15;3.70;;;18.90;99.90;;;;;;5009845;28;20343;-86
2022/08/09 07:37:37;;;;;;;6.10;3.67;;;18.90;94.10;;;;;;5048683;28;20115;-85
2022/08/09 07:40:04;;;;;;;8.57;3.38;;;18.90;1.00;;;;;;5051735;28;20041;-85
2022/08/09 07:42:32;;;;;;;3.20;2.65;;;18.90;1.00;;;;;;5029266;28;20045;-85
2022/08/09 07:44:58;;;;;;;4.90;2.42;;;19.00;1.00;;;;;;5030790;28;20064;-85
2022/08/09 07:47:24;;;;;;;4.85;2.17;;;19.20;1.00;;;;;;5015654;28;20144;-85
2022/08/09 07:49:50;;;;;;;5.35;2.17;;;19.20;99.90;;;;;;5014582;28;20033;-85
2022/08/09 07:52:16;;;;;;;3.10;1.90;;;19.00;99.90;;;;;;5017517;28;20036;-85
2022/08/09 07:54:42;;;;;;;2.20;1.65;;;18.80;99.90;;;;;;5028984;28;20040;-85
2022/08/09 07:57:11;;;;;;;2.65;1.70;;;18.70;99.90;;;;;;5027420;28;20393;-85
2022/08/09 07:59:37;;;;;;;4.18;1.92;;;18.60;99.90;;;;;;5038165;28;20040;-85
2022/08/09 08:02:02;;;;;;;2.47;1.80;;;19.20;99.90;;;;;;5016706;28;20057;-85
2022/08/09 08:04:31;;;;;;;3.95;1.65;;;19.20;99.90;;;;;;5034023;28;20428;-85
2022/08/09 08:06:57;;;;;;;3.15;1.60;;;19.50;99.90;;;;;;5007779;28;20043;-86
2022/08/09 08:09:23;;;;;;;3.88;2.05;;;19.70;99.90;;;;;;5011756;28;20033;-85
2022/08/09 08:11:49;;;;;;;3.88;1.88;;;19.90;99.90;;;;;;5051055;28;20047;-85
2022/08/09 08:14:14;;;;;;;2.45;1.50;;;20.10;99.90;;;;;;5016451;28;20040;-85
2022/08/09 08:16:40;;;;;;;2.00;1.70;;;20.10;99.90;;;;;;5035056;28;20835;-85
2022/08/09 08:19:06;;;;;;;4.75;1.88;;;20.50;99.90;;;;;;5013854;28;20061;-86
2022/08/09 08:21:32;;;;;;;2.30;1.98;;;20.60;99.90;;;;;;5024834;28;20043;-85
2022/08/09 08:23:57;;;;;;;3.25;1.90;;;20.70;95.90;;;;;;5020959;28;20128;-85
2022/08/09 08:26:23;;;;;;;2.30;1.50;;;20.60;27.30;;;;;;5016477;28;20037;-85
2022/08/09 08:28:49;;;;;;;2.22;1.40;;;20.20;39.80;;;;;;5018553;28;20033;-85
2022/08/09 08:31:14;;;;;;;2.92;1.55;;;19.70;1.00;;;;;;5020607;28;20056;-85
2022/08/09 08:33:43;;;;;;;3.33;1.90;;;19.70;99.90;;;;;;5012614;28;20045;-84
2022/08/09 08:36:09;;;;;;;2.65;1.50;;;19.80;99.90;;;;;;5015497;28;20041;-85
2022/08/09 08:38:37;;;;;;;6.15;1.50;;;19.80;99.90;;;;;;5025901;28;20063;-85
2022/08/09 08:41:03;;;;;;;2.15;1.23;;;19.70;99.90;;;;;;5035972;28;20098;-85
2022/08/09 08:43:29;;;;;;;2.78;1.30;;;19.90;99.90;;;;;;5029364;28;20171;-86
2022/08/09 08:46:04;;;;;;;1.20;1.08;;;19.70;1.00;;;;;;5016183;28;20389;-85
2022/08/09 08:48:31;;;;;;;1.67;0.88;;;19.70;1.00;;;;;;5038771;28;20033;-86
2022/08/09 08:50:58;;;;;;;0.95;0.90;;;19.60;1.00;;;;;;5009636;28;20029;-85
2022/08/09 08:53:23;;;;;;;2.22;1.30;;;19.60;1.00;;;;;;5030230;28;20056;-85
2022/08/09 08:55:49;;;;;;;1.25;1.08;;;19.80;30.80;;;;;;5016102;28;20337;-86
2022/08/09 08:58:15;;;;;;;1.13;0.63;;;19.70;1.00;;;;;;5030664;28;20036;-85
2022/08/09 09:00:43;;;;;;;2.53;1.05;;;20.20;1.00;;;;;;5015857;28;20061;-85
2022/08/09 09:03:11;;;;;;;1.05;0.80;;;20.40;1.00;;;;;;5029246;28;20091;-85
2022/08/09 09:05:37;;;;;;;1.95;0.88;;;20.40;1.00;;;;;;5011376;28;20045;-85
2022/08/09 09:08:03;;;;;;;1.85;0.98;;;20.30;99.90;;;;;;5012242;28;20111;-85
2022/08/09 09:10:31;;;;;;;0.98;0.70;;;20.70;99.90;;;;;;5034303;28;20552;-85
2022/08/09 09:12:58;;;;;;;1.08;0.70;;;20.90;99.90;;;;;;5013317;28;20033;-85
2022/08/09 09:15:24;;;;;;;1.10;0.73;;;21.00;99.90;;;;;;5016675;28;20531;-85
2022/08/09 09:17:50;;;;;;;0.95;0.65;;;21.00;99.90;;;;;;5036608;28;20041;-86
2022/08/09 09:20:16;;;;;;;1.75;1.00;;;21.00;99.90;;;;;;5016904;28;20041;-85
2022/08/09 09:22:54;;;;;;;1.63;0.82;;;20.90;99.90;;;;;;5011414;28;20128;-85
2022/08/09 09:25:31;;;;;;;1.70;0.88;;;21.00;99.90;;;;;;5022288;28;20161;-86
2022/08/09 09:27:57;;;;;;;2.60;1.00;;;21.20;99.90;;;;;;5031243;28;20052;-85
2022/08/09 09:30:23;;;;;;;1.92;0.70;;;21.30;99.90;;;;;;5014147;28;20499;-85
2022/08/09 09:33:01;;;;;;;1.10;0.70;;;21.00;99.90;;;;;;5032333;28;20075;-85
2022/08/09 09:35:27;;;;;;;0.80;0.63;;;21.40;99.90;;;;;;5015414;28;20075;-85
2022/08/09 09:37:53;;;;;;;0.93;0.80;;;21.60;99.90;;;;;;5055275;28;20064;-86
2022/08/09 09:40:19;;;;;;;1.77;0.90;;;21.80;99.90;;;;;;5037880;28;20131;-86
2022/08/09 09:42:55;;;;;;;2.22;0.90;;;21.40;99.90;;;;;;5036344;28;20413;-84
2022/08/09 09:45:22;;;;;;;1.73;0.73;;;21.80;99.90;;;;;;5030280;28;20048;-85
2022/08/09 09:47:51;;;;;;;2.00;0.80;;;22.20;99.90;;;;;;5013933;28;20126;-85
2022/08/09 09:50:21;;;;;;;2.20;0.88;;;22.40;99.90;;;;;;5027773;28;20038;-85
2022/08/09 09:52:51;;;;;;;2.00;0.90;;;22.70;99.90;;;;;;5016953;28;20044;-86
2022/08/09 09:55:20;;;;;;;1.35;0.90;;;22.80;99.90;;;;;;5013176;28;20071;-85
2022/08/09 09:58:00;;;;;;;1.35;0.90;;;23.00;99.90;;;;;;5014128;28;20501;-85
2022/08/09 10:00:26;;;;;;;1.55;0.80;;;23.10;99.90;;;;;;5012162;28;20103;-86
2022/08/09 10:02:52;;;;;;;1.48;0.88;;;23.10;99.90;;;;;;5020847;28;20044;-86
2022/08/09 10:05:18;;;;;;;1.38;0.85;;;23.40;99.90;;;;;;5014631;28;20797;-85
2022/08/09 10:07:43;;;;;;;1.13;0.77;;;22.60;81.30;;;;;;5031915;28;20397;-85
2022/08/09 10:10:09;;;;;;;2.42;0.80;;;21.80;99.90;;;;;;5026624;28;20179;-86
2022/08/09 10:12:39;;;;;;;3.58;0.90;;;22.20;99.90;;;;;;5027399;28;20033;-86
2022/08/09 10:15:15;;;;;;;1.73;0.68;;;22.20;99.90;;;;;;5035158;28;20108;-86
2022/08/09 10:17:46;;;;;;;2.83;0.93;;;22.20;99.90;;;;;;5017894;28;20045;-86
2022/08/09 10:20:18;;;;;;;1.60;0.80;;;22.80;99.90;;;;;;5019760;28;20037;-86
2022/08/09 10:22:46;;;;;;;1.92;0.90;;;23.00;99.90;;;;;;5010416;28;20408;-86
2022/08/09 10:25:12;;;;;;;1.13;0.70;;;23.00;92.20;;;;;;5055465;28;20511;-86
2022/08/09 10:27:39;;;;;;;1.27;0.70;;;23.40;99.90;;;;;;5011726;28;20060;-85
2022/08/09 10:30:07;;;;;;;2.75;0.73;;;23.60;61.90;;;;;;5014408;28;20086;-86
2022/08/09 10:32:33;;;;;;;1.02;0.60;;;23.40;13.70;;;;;;5013921;28;20037;-86
2022/08/09 10:35:00;;;;;;;2.10;0.73;;;23.00;1.00;;;;;;5035827;28;20434;-86
2022/08/09 10:37:26;;;;;;;1.20;0.85;;;23.40;1.00;;;;;;5028709;28;20191;-85
2022/08/09 10:39:52;;;;;;;2.63;1.00;;;23.40;22.10;;;;;;5010788;28;20072;-86
2022/08/09 10:42:19;;;;;;;2.65;0.85;;;23.50;1.00;;;;;;5030253;28;20102;-85
2022/08/09 10:44:49;;;;;;;1.13;0.70;;;24.10;65.90;;;;;;5047929;28;20059;-85
2022/08/09 10:47:21;;;;;;;1.42;0.70;;;23.70;1.00;;;;;;5016290;28;20037;-86
2022/08/09 10:49:56;;;;;;;2.95;0.73;;;23.40;1.00;;;;;;5031119;28;20061;-85
2022/08/09 10:52:48;;;;;;;1.35;0.70;;;23.70;1.00;;;;;;5016476;28;20082;-85
2022/08/09 10:55:25;;;;;;;1.70;0.82;;;24.30;2.80;;;;;;5012593;28;20087;-86
2022/08/09 10:57:52;;;;;;;1.17;0.90;;;24.90;1.00;;;;;;5010251;28;20037;-85
2022/08/09 11:00:48;;;;;;;1.83;0.80;;;25.00;1.00;;;;;;5028457;28;20034;-86
2022/08/09 11:03:24;;;;;;;2.28;0.70;;;25.00;1.00;;;;;;5036579;28;20033;-85
2022/08/09 11:06:18;;;;;;;1.20;0.85;;;25.00;1.00;;;;;;5018872;28;20036;-86
2022/08/09 11:08:46;;;;;;;0.85;0.70;;;25.10;99.90;;;;;;5020972;28;20529;-86
2022/08/09 11:11:12;;;;;;;0.70;0.70;;;25.20;1.00;;;;;;5007793;28;20477;-86
2022/08/09 11:13:37;;;;;;;1.88;0.80;;;25.30;99.90;;;;;;5048687;28;20033;-86
2022/08/09 11:16:35;;;;;;;1.70;0.93;;;24.70;99.90;;;;;;5032576;28;20058;-86
2022/08/09 11:19:03;;;;;;;2.45;0.85;;;24.90;99.90;;;;;;5010997;28;20045;-85
2022/08/09 11:21:57;;;;;;;2.38;0.70;;;25.10;99.90;;;;;;5013962;28;20515;-86
2022/08/09 11:24:23;;;;;;;2.28;1.20;;;25.80;99.90;;;;;;5022017;28;20121;-87
2022/08/09 11:26:49;;;;;;;0.82;0.65;;;26.20;99.90;;;;;;5031896;28;20466;-86
2022/08/09 11:29:53;;;;;;;2.30;1.10;;;25.90;99.90;;;;;;5012277;28;20320;-87
2022/08/09 11:32:49;;;;;;;2.22;0.73;;;24.30;99.90;;;;;;5019648;28;20381;-86
2022/08/09 11:35:19;;;;;;;1.95;0.68;;;23.70;99.90;;;;;;5018136;28;20037;-86
2022/08/09 11:37:49;;;;;;;0.65;0.65;;;24.50;1.00;;;;;;5033924;28;20076;-86
2022/08/09 11:40:26;;;;;;;0.95;0.80;;;25.30;99.90;;;;;;5015544;28;20054;-86
2022/08/09 11:42:54;;;;;;;2.42;0.90;;;25.70;99.90;;;;;;5012946;28;20072;-86
2022/08/09 11:45:21;;;;;;;1.65;0.88;;;26.20;99.90;;;;;;5014682;28;20280;-86
2022/08/09 11:47:49;;;;;;;1.05;0.70;;;26.20;99.90;;;;;;5012059;28;20059;-85
2022/08/09 11:50:15;;;;;;;0.93;0.82;;;26.80;99.90;;;;;;5010965;28;20041;-86
2022/08/09 11:52:59;;;;;;;1.05;0.85;;;25.60;99.90;;;;;;5007521;28;20953;-87
2022/08/09 11:55:41;;;;;;;2.00;0.90;;;25.40;99.90;;;;;;5010167;28;20057;-85
2022/08/09 11:58:10;;;;;;;1.17;0.90;;;26.20;99.90;;;;;;5010524;28;20045;-85
2022/08/09 12:00:53;;;;;;;0.75;0.60;;;26.70;99.90;;;;;;5034413;28;20526;-86
2022/08/09 12:03:22;;;;;;;1.60;0.75;;;26.60;99.90;;;;;;5014806;28;20064;-85
2022/08/09 12:05:50;;;;;;;1.02;0.90;;;26.40;99.90;;;;;;5013916;28;20037;-85
2022/08/09 12:08:18;;;;;;;1.83;0.70;;;26.50;99.90;;;;;;5048979;28;20048;-85
2022/08/09 12:10:49;;;;;;;1.50;0.85;;;26.50;99.90;;;;;;5019478;28;20068;-85
2022/08/09 12:13:51;;;;;;;1.67;0.70;;;26.50;99.90;;;;;;5018107;28;20124;-86
2022/08/09 12:16:21;;;;;;;0.70;0.50;;;25.30;99.90;;;;;;4998806;28;20029;-85
2022/08/09 12:18:49;;;;;;;0.77;0.77;;;25.20;99.90;;;;;;5012367;28;20055;-86
2022/08/09 12:21:28;;;;;;;0.55;0.50;;;25.30;99.90;;;;;;5014312;28;20038;-86
2022/08/09 12:23:55;;;;;;;2.20;0.70;;;25.80;99.90;;;;;;5034348;28;20048;-86
2022/08/09 12:26:22;;;;;;;0.93;0.70;;;26.20;99.90;;;;;;5039740;28;20071;-86
2022/08/09 12:28:50;;;;;;;2.17;0.98;;;26.60;99.90;;;;;;5014600;28;20163;-86
2022/08/09 12:31:26;;;;;;;1.50;0.80;;;26.20;99.90;;;;;;5033826;28;20091;-86
2022/08/09 12:33:55;;;;;;;0.70;0.60;;;25.90;99.90;;;;;;5017086;28;20144;-86
2022/08/09 12:36:24;;;;;;;1.83;0.60;;;25.50;99.90;;;;;;5028275;28;20033;-85
2022/08/09 12:38:51;;;;;;;1.40;0.60;;;25.60;99.90;;;;;;5019528;28;20474;-86
2022/08/09 12:41:29;;;;;;;1.50;0.90;;;24.50;99.90;;;;;;5011073;28;20043;-85
2022/08/09 12:43:56;;;;;;;2.72;0.70;;;24.90;99.90;;;;;;5014747;28;20492;-85
2022/08/09 12:46:24;;;;;;;0.77;0.77;;;25.70;99.90;;;;;;5013946;28;20033;-85
2022/08/09 12:48:54;;;;;;;0.55;0.50;;;26.50;99.90;;;;;;5013611;28;20048;-85
2022/08/09 12:51:22;;;;;;;1.77;0.77;;;26.80;99.90;;;;;;5016535;28;21085;-86
2022/08/09 12:53:58;;;;;;;0.90;0.60;;;27.40;99.90;;;;;;5021919;28;20421;-85